Time;durP1;ratioP1;P1;durP2;ratioP2;P2;SDS_P1;SDS_P2;PMS_P1;PMS_P2;Temp;Humidity;BMP_temperature;BMP_pressure;BME280_temperature;BME280_humidity;BME280_pressure;Samples;Min_cycle;Max_cycle;Signal;HPM_P1;HPM_P2
2022/02/19 00:01:33;;;;;;;5.07;1.10;;;;;;;-145.69;100.00;72120.81;5096672;28;20683;-78
2022/02/19 00:03:59;;;;;;;13.87;1.80;;;;;;;-145.69;99.71;72118.81;5115119;28;20193;-79
2022/02/19 00:06:26;;;;;;;5.43;1.33;;;;;;;-145.69;97.71;72106.88;5107741;28;20668;-78
2022/02/19 00:08:52;;;;;;;7.00;1.00;;;;;;;-145.69;98.74;72108.84;5094277;28;20205;-79
2022/02/19 00:11:18;;;;;;;8.23;1.63;;;;;;;-145.69;98.14;72110.84;5094072;28;20202;-79
2022/02/19 00:13:45;;;;;;;12.33;1.27;;;;;;;-145.69;96.55;72102.88;5097570;28;20194;-79
2022/02/19 00:16:12;;;;;;;8.17;1.80;;;;;;;-145.69;94.51;72088.97;5114683;28;20201;-79
2022/02/19 00:18:39;;;;;;;6.27;1.60;;;;;;;-145.69;96.02;72098.91;5114499;28;20225;-79
2022/02/19 00:21:05;;;;;;;11.77;1.30;;;;;;;-145.69;95.61;72116.81;5114259;28;20201;-79
2022/02/19 00:23:32;;;;;;;7.33;1.47;;;;;;;-145.69;93.12;72102.88;5100500;28;20202;-79
2022/02/19 00:25:58;;;;;;;6.27;1.30;;;;;;;-145.69;93.75;72104.88;5093767;28;20205;-79
2022/02/19 00:28:25;;;;;;;5.67;1.20;;;;;;;-145.69;95.02;72114.81;5094142;28;20198;-79
2022/02/19 00:30:51;;;;;;;6.20;1.53;;;;;;;-145.69;95.05;72130.75;5094059;28;20566;-79
2022/02/19 00:33:20;;;;;;;9.77;1.57;;;;;;;-145.69;90.93;72100.91;5113428;28;20258;-79
2022/02/19 00:35:47;;;;;;;7.37;1.50;;;;;;;-145.69;91.59;72114.81;5114244;28;20203;-79
2022/02/19 00:38:17;;;;;;;5.03;1.20;;;;;;;-145.69;90.60;72114.81;5113915;28;20320;-78
2022/02/19 00:40:44;;;;;;;5.70;1.10;;;;;;;-145.69;89.82;72116.81;5114297;28;20201;-79
2022/02/19 00:43:10;;;;;;;11.63;1.57;;;;;;;-145.69;91.25;72130.75;5114397;28;20205;-78
2022/02/19 00:45:36;;;;;;;8.47;1.80;;;;;;;-145.69;90.08;72142.69;5114065;28;20602;-78
2022/02/19 00:48:03;;;;;;;3.40;1.00;;;;;;;-145.69;87.17;72144.69;5113983;28;20599;-79
2022/02/19 00:50:31;;;;;;;4.73;1.23;;;;;;;-145.69;86.27;72148.66;5114169;28;20193;-78
2022/02/19 00:52:58;;;;;;;5.93;1.33;;;;;;;-145.69;88.21;72162.59;5113899;28;20197;-79
2022/02/19 00:55:25;;;;;;;7.37;1.37;;;;;;;-145.69;87.64;72158.63;5113733;28;20237;-79
2022/02/19 00:57:52;;;;;;;6.37;1.10;;;;;;;-145.69;87.52;72164.59;5114163;28;20229;-79
2022/02/19 01:00:19;;;;;;;6.30;1.13;;;;;;;-145.69;88.16;72174.53;5113844;28;20219;-79
2022/02/19 01:02:45;;;;;;;5.17;1.20;;;;;;;-145.69;89.96;72186.47;5098593;28;20194;-77
2022/02/19 01:05:12;;;;;;;4.10;1.20;;;;;;;-145.69;90.93;72190.47;5093499;28;20198;-79
2022/02/19 01:07:40;;;;;;;4.77;1.10;;;;;;;-145.69;91.20;72194.44;5092997;28;20679;-79
2022/02/19 01:10:07;;;;;;;9.30;1.60;;;;;;;-145.69;91.88;72202.41;5093263;28;20229;-79
2022/02/19 01:12:34;;;;;;;4.70;1.43;;;;;;;-145.69;92.54;72224.28;5093726;28;20252;-79
2022/02/19 01:15:00;;;;;;;8.13;1.80;;;;;;;-145.69;93.73;72230.25;5093212;28;20255;-78
2022/02/19 01:17:27;;;;;;;4.53;1.20;;;;;;;-145.69;91.89;72224.28;5093103;28;20233;-79
2022/02/19 01:19:54;;;;;;;6.23;1.37;;;;;;;-145.69;94.46;72238.22;5093286;28;20557;-79
2022/02/19 01:22:20;;;;;;;10.30;1.77;;;;;;;-145.69;92.10;72226.28;5093081;28;20202;-80
2022/02/19 01:24:48;;;;;;;12.17;1.87;;;;;;;-145.69;91.71;72232.25;5093298;28;20202;-80
2022/02/19 01:27:14;;;;;;;10.03;1.30;;;;;;;-145.69;88.87;72228.28;5093057;28;20205;-79
2022/02/19 01:29:41;;;;;;;9.63;1.70;;;;;;;-145.69;90.01;72238.22;5093120;28;20206;-78
2022/02/19 01:32:08;;;;;;;8.83;1.10;;;;;;;-145.69;88.72;72238.22;5104734;28;20197;-79
2022/02/19 01:34:35;;;;;;;9.63;1.73;;;;;;;-145.69;87.43;72230.25;5117637;28;20204;-79
2022/02/19 01:37:01;;;;;;;5.77;1.17;;;;;;;-145.69;87.63;72234.25;5117341;28;20196;-79
2022/02/19 01:39:29;;;;;;;6.77;1.43;;;;;;;-145.69;85.95;72234.25;5117743;28;20201;-79
2022/02/19 01:41:57;;;;;;;6.70;1.53;;;;;;;-145.69;88.12;72238.22;5117718;28;20251;-79
2022/02/19 01:44:35;;;;;;;8.90;1.50;;;;;;;-145.69;86.76;72246.19;5117610;28;20606;-80
2022/02/19 01:47:02;;;;;;;4.07;1.20;;;;;;;-145.69;85.63;72240.22;5117349;28;20229;-78
2022/02/19 01:49:28;;;;;;;5.40;1.37;;;;;;;-145.69;86.17;72240.22;5117595;28;20205;-77
2022/02/19 01:51:55;;;;;;;8.00;1.47;;;;;;;-145.69;87.04;72254.16;5117488;28;20254;-78
2022/02/19 01:54:22;;;;;;;10.30;1.30;;;;;;;-145.69;86.92;72258.13;5117494;28;20204;-77
2022/02/19 01:56:49;;;;;;;4.90;1.30;;;;;;;-145.69;84.92;72254.16;5117246;28;20240;-78
2022/02/19 01:59:17;;;;;;;5.53;1.20;;;;;;;-145.69;85.56;72250.16;5116070;28;20233;-78
2022/02/19 02:01:43;;;;;;;14.20;1.30;;;;;;;-145.69;84.19;72268.06;5106398;28;20206;-77
2022/02/19 02:04:10;;;;;;;13.63;1.77;;;;;;;-145.69;83.61;72250.16;5097067;28;20201;-79
2022/02/19 02:06:37;;;;;;;7.57;1.10;;;;;;;-145.69;83.46;72266.09;5096700;28;20202;-79
2022/02/19 02:09:04;;;;;;;14.90;2.17;;;;;;;-145.69;82.26;72262.09;5096589;28;20216;-79
2022/02/19 02:11:31;;;;;;;11.13;1.37;;;;;;;-145.69;81.73;72256.13;5114715;28;20197;-78
2022/02/19 02:13:58;;;;;;;9.50;1.10;;;;;;;-145.69;84.03;72268.06;5116975;28;20205;-77
2022/02/19 02:16:35;;;;;;;8.30;1.60;;;;;;;-145.69;83.28;72272.06;5116863;28;20564;-78
2022/02/19 02:19:02;;;;;;;3.07;1.20;;;;;;;-145.69;78.08;72254.16;5116879;28;20229;-77
2022/02/19 02:21:29;;;;;;;8.47;1.30;;;;;;;-145.69;78.77;72258.13;5116927;28;20568;-78
2022/02/19 02:23:56;;;;;;;6.60;1.40;;;;;;;-145.69;79.80;72264.09;5116662;28;20198;-78
2022/02/19 02:26:23;;;;;;;6.17;1.13;;;;;;;-145.69;80.05;72266.09;5116825;28;20201;-78
2022/02/19 02:28:50;;;;;;;9.83;1.63;;;;;;;-145.69;79.28;72266.09;5116188;28;20194;-77
2022/02/19 02:31:17;;;;;;;8.23;1.50;;;;;;;-145.69;79.57;72264.09;5116712;28;20624;-78
2022/02/19 02:33:43;;;;;;;12.37;1.60;;;;;;;-145.69;79.93;72274.06;5116745;28;20197;-77
2022/02/19 02:36:10;;;;;;;7.63;1.53;;;;;;;-145.69;79.84;72278.03;5116937;28;20197;-78
2022/02/19 02:38:37;;;;;;;15.80;1.50;;;;;;;-145.69;78.23;72276.03;5116480;28;20225;-78
2022/02/19 02:41:04;;;;;;;11.23;2.13;;;;;;;-145.69;77.95;72266.09;5102784;28;20665;-77
2022/02/19 02:43:30;;;;;;;10.63;1.37;;;;;;;-145.69;80.47;72280.03;5095417;28;20202;-78
2022/02/19 02:45:57;;;;;;;9.10;1.63;;;;;;;-145.69;79.80;72278.03;5095277;28;20610;-78
2022/02/19 02:48:24;;;;;;;6.20;1.37;;;;;;;-145.69;80.70;72280.03;5095883;28;20819;-77
2022/02/19 02:50:51;;;;;;;8.50;1.40;;;;;;;-145.69;80.93;72289.97;5095767;28;20645;-78
2022/02/19 02:53:18;;;;;;;9.17;1.33;;;;;;;-145.69;80.87;72301.91;5095795;28;20255;-78
2022/02/19 02:55:46;;;;;;;10.23;1.63;;;;;;;-145.69;80.98;72291.97;5095471;28;20627;-78
2022/02/19 02:58:12;;;;;;;7.03;1.17;;;;;;;-145.69;81.57;72297.94;5096962;28;20229;-78
2022/02/19 03:00:39;;;;;;;10.13;2.03;;;;;;;-145.69;80.20;72286.00;5095737;28;20198;-79
2022/02/19 03:03:05;;;;;;;7.03;1.67;;;;;;;-145.69;80.36;72293.94;5095669;28;20537;-79
2022/02/19 03:05:31;;;;;;;10.90;1.40;;;;;;;-145.69;79.81;72295.94;5095652;28;20202;-79
2022/02/19 03:07:58;;;;;;;11.00;1.63;;;;;;;-145.69;78.72;72293.94;5095551;28;20206;-78
2022/02/19 03:10:24;;;;;;;8.47;1.60;;;;;;;-145.69;80.44;72301.91;5102960;28;20193;-79
2022/02/19 03:12:52;;;;;;;16.43;1.80;;;;;;;-145.69;78.90;72309.88;5115680;28;20205;-78
2022/02/19 03:15:19;;;;;;;10.97;1.33;;;;;;;-145.69;80.20;72317.84;5115837;28;20487;-79
2022/02/19 03:17:47;;;;;;;5.43;1.50;;;;;;;-145.69;78.95;72305.91;5115879;28;20316;-79
2022/02/19 03:20:15;;;;;;;9.53;1.57;;;;;;;-145.69;78.87;72313.84;5115781;28;20205;-79
2022/02/19 03:22:42;;;;;;;17.83;2.03;;;;;;;-145.69;79.03;72317.84;5115817;28;20205;-79
2022/02/19 03:25:09;;;;;;;13.20;1.80;;;;;;;-145.69;80.00;72333.75;5115422;28;20194;-79
2022/02/19 03:27:35;;;;;;;8.60;1.60;;;;;;;-145.69;79.22;72327.78;5115368;28;20826;-79
2022/02/19 03:30:03;;;;;;;11.90;1.60;;;;;;;-145.69;77.27;72323.81;5115851;28;20202;-78
2022/02/19 03:32:30;;;;;;;8.47;1.40;;;;;;;-145.69;77.33;72325.81;5115720;28;20205;-79
2022/02/19 03:34:56;;;;;;;10.63;1.73;;;;;;;-145.69;76.38;72331.78;5115578;28;20236;-78
2022/02/19 03:37:23;;;;;;;12.10;1.90;;;;;;;-145.69;75.83;72333.75;5115408;28;20206;-78
2022/02/19 03:39:49;;;;;;;9.10;1.80;;;;;;;-145.69;75.42;72349.69;5112587;28;20641;-79
2022/02/19 03:42:15;;;;;;;9.27;1.63;;;;;;;-145.69;75.10;72361.63;5094518;28;20187;-78
2022/02/19 03:44:42;;;;;;;13.03;1.93;;;;;;;-145.69;74.02;72355.66;5093989;28;20202;-79
2022/02/19 03:47:10;;;;;;;7.43;1.40;;;;;;;-145.69;74.50;72359.63;5094802;28;20206;-79
2022/02/19 03:49:36;;;;;;;13.73;1.87;;;;;;;-145.69;75.10;72367.59;5094655;28;20201;-79
2022/02/19 03:52:03;;;;;;;9.00;1.70;;;;;;;-145.69;74.34;72379.53;5094687;28;20198;-79
2022/02/19 03:54:29;;;;;;;9.57;1.47;;;;;;;-145.69;73.25;72373.56;5094446;28;20198;-78
2022/02/19 03:56:56;;;;;;;11.53;1.67;;;;;;;-145.69;73.55;72373.56;5094075;28;20241;-79
2022/02/19 03:59:22;;;;;;;5.07;1.50;;;;;;;-145.69;74.82;72373.56;5094244;28;20230;-79
2022/02/19 04:01:49;;;;;;;15.37;2.60;;;;;;;-145.69;74.93;72387.50;5108570;28;20586;-79
2022/02/19 04:04:16;;;;;;;12.47;1.93;;;;;;;-145.69;74.33;72395.47;5114878;28;20208;-80
2022/02/19 04:06:43;;;;;;;8.43;1.80;;;;;;;-145.69;75.70;72403.41;5111098;28;20201;-79
2022/02/19 04:09:09;;;;;;;10.63;1.67;;;;;;;-145.69;74.62;72405.41;5094518;28;20194;-79
2022/02/19 04:11:36;;;;;;;10.73;1.80;;;;;;;-145.69;74.27;72417.34;5094480;28;20546;-79
2022/02/19 04:14:02;;;;;;;13.43;2.43;;;;;;;-145.69;72.96;72409.38;5094243;28;20198;-79
2022/02/19 04:16:29;;;;;;;6.73;1.30;;;;;;;-145.69;74.25;72425.31;5094309;28;20677;-79
2022/02/19 04:18:55;;;;;;;10.70;2.03;;;;;;;-145.69;73.84;72413.38;5094031;28;20766;-78
2022/02/19 04:21:23;;;;;;;14.77;1.73;;;;;;;-145.69;73.96;72427.31;5111818;28;20193;-78
2022/02/19 04:23:49;;;;;;;11.63;1.80;;;;;;;-145.69;74.79;72433.28;5114524;28;20262;-79
2022/02/19 04:26:16;;;;;;;16.73;1.90;;;;;;;-145.69;75.63;72449.19;5114537;28;20208;-79
2022/02/19 04:28:43;;;;;;;17.30;1.60;;;;;;;-145.69;77.40;72465.13;5114201;28;20679;-78
2022/02/19 04:31:09;;;;;;;10.90;1.70;;;;;;;-145.69;76.60;72465.13;5114219;28;20587;-78
2022/02/19 04:33:36;;;;;;;11.50;2.13;;;;;;;-145.69;76.51;72457.16;5114251;28;20197;-78
2022/02/19 04:36:02;;;;;;;12.53;1.77;;;;;;;-145.69;76.66;72453.19;5114104;28;20196;-78
2022/02/19 04:38:30;;;;;;;7.27;1.60;;;;;;;-145.69;75.90;72455.16;5114265;28;20233;-78
2022/02/19 04:40:57;;;;;;;13.77;1.87;;;;;;;-145.69;75.55;72449.19;5114208;28;20597;-78
2022/02/19 04:43:24;;;;;;;10.53;1.47;;;;;;;-145.69;74.03;72459.16;5114120;28;20208;-78
2022/02/19 04:45:50;;;;;;;13.37;1.40;;;;;;;-145.69;74.45;72457.16;5114098;28;20205;-78
2022/02/19 04:48:16;;;;;;;13.87;1.50;;;;;;;-145.69;74.81;72473.09;5114041;28;20204;-78
2022/02/19 04:50:43;;;;;;;6.93;1.40;;;;;;;-145.69;74.00;72475.06;5100941;28;20207;-78
2022/02/19 04:53:09;;;;;;;9.37;1.50;;;;;;;-145.69;72.10;72463.13;5093678;28;20209;-78
2022/02/19 04:55:37;;;;;;;12.97;1.90;;;;;;;-145.69;74.61;72487.00;5093246;28;20222;-78
2022/02/19 04:58:04;;;;;;;10.23;1.50;;;;;;;-145.69;73.79;72493.00;5093387;28;20202;-78
2022/02/19 05:00:31;;;;;;;11.60;1.67;;;;;;;-145.69;73.94;72504.94;5093376;28;20209;-79
2022/02/19 05:02:57;;;;;;;9.63;1.47;;;;;;;-145.69;74.07;72489.00;5093293;28;20198;-79
2022/02/19 05:05:24;;;;;;;7.80;1.93;;;;;;;-145.69;74.10;72498.97;5093492;28;20247;-79
2022/02/19 05:07:50;;;;;;;12.43;1.73;;;;;;;-145.69;74.48;72504.94;5092450;28;20205;-79
2022/02/19 05:10:17;;;;;;;10.23;1.67;;;;;;;-145.69;74.66;72526.81;5093397;28;20202;-78
2022/02/19 05:12:44;;;;;;;5.37;1.30;;;;;;;-145.69;75.08;72530.81;5093347;28;20195;-79
2022/02/19 05:15:12;;;;;;;8.43;1.87;;;;;;;-145.69;74.98;72534.78;5093378;28;20198;-79
2022/02/19 05:17:45;;;;;;;4.53;1.37;;;;;;;-145.69;75.12;72532.78;5093131;28;20252;-78
2022/02/19 05:20:12;;;;;;;9.00;1.60;;;;;;;-145.69;75.51;72536.78;5103772;28;20235;-79
2022/02/19 05:22:39;;;;;;;9.73;1.30;;;;;;;-145.69;75.04;72534.78;5113083;28;20201;-78
2022/02/19 05:25:06;;;;;;;7.27;1.40;;;;;;;-145.69;75.57;72542.75;5113567;28;20618;-78
2022/02/19 05:27:32;;;;;;;12.73;1.87;;;;;;;-145.69;76.73;72554.69;5113170;28;20569;-78
2022/02/19 05:30:00;;;;;;;10.70;2.40;;;;;;;-145.69;76.29;72548.72;5113338;28;20601;-78
2022/02/19 05:32:27;;;;;;;16.27;2.03;;;;;;;-145.69;77.91;72572.59;5113377;28;20205;-79
2022/02/19 05:34:53;;;;;;;6.67;1.60;;;;;;;-145.69;76.45;72564.66;5113369;28;20204;-79
2022/02/19 05:37:19;;;;;;;14.17;1.73;;;;;;;-145.69;76.58;72578.56;5113452;28;20627;-78
2022/02/19 05:39:46;;;;;;;10.53;1.93;;;;;;;-145.69;74.16;72568.63;5113176;28;20752;-78
2022/02/19 05:42:12;;;;;;;16.10;2.33;;;;;;;-145.69;75.16;72580.56;5113392;28;20226;-79
2022/02/19 05:44:39;;;;;;;16.80;1.80;;;;;;;-145.69;75.07;72580.56;5113186;28;20205;-79
2022/02/19 05:47:07;;;;;;;9.77;1.70;;;;;;;-145.69;76.98;72592.50;5113042;28;20227;-79
2022/02/19 05:49:34;;;;;;;13.87;1.57;;;;;;;-145.69;75.03;72574.59;5109356;28;20197;-78
2022/02/19 05:52:00;;;;;;;8.50;1.43;;;;;;;-145.69;74.74;72584.56;5092819;28;20198;-78
2022/02/19 05:54:27;;;;;;;17.63;1.60;;;;;;;-145.69;74.56;72584.56;5093127;28;20629;-78
2022/02/19 05:56:53;;;;;;;11.83;1.70;;;;;;;-145.69;73.94;72576.59;5092698;28;20225;-78
2022/02/19 05:59:20;;;;;;;11.77;1.67;;;;;;;-145.69;74.30;72578.56;5092559;28;20616;-78
2022/02/19 06:01:46;;;;;;;9.43;1.63;;;;;;;-145.69;75.22;72584.56;5092697;28;20202;-78
2022/02/19 06:04:14;;;;;;;15.07;1.70;;;;;;;-145.69;76.46;72598.47;5092797;28;20209;-78
2022/02/19 06:06:40;;;;;;;14.03;1.93;;;;;;;-145.69;75.85;72610.44;5092835;28;20243;-78
2022/02/19 06:09:07;;;;;;;7.97;2.33;;;;;;;-145.69;75.50;72604.44;5092705;28;20537;-78
2022/02/19 06:11:33;;;;;;;6.53;1.67;;;;;;;-145.69;75.73;72600.47;5092854;28;20205;-78
2022/02/19 06:13:59;;;;;;;8.93;1.60;;;;;;;-145.69;77.17;72624.34;5094801;28;20251;-78
2022/02/19 06:16:26;;;;;;;10.93;1.63;;;;;;;-145.69;77.69;72628.34;5092853;28;20206;-78
2022/02/19 06:18:52;;;;;;;7.20;1.80;;;;;;;-145.69;76.90;72632.31;5093955;28;20253;-78
2022/02/19 06:21:20;;;;;;;8.03;1.90;;;;;;;-145.69;77.08;72642.28;5114249;28;20200;-78
2022/02/19 06:23:46;;;;;;;11.17;2.00;;;;;;;-145.69;77.91;72648.25;5116982;28;20204;-78
2022/02/19 06:26:13;;;;;;;10.53;1.60;;;;;;;-145.69;78.80;72658.19;5116854;28;20254;-78
2022/02/19 06:28:39;;;;;;;6.93;1.20;;;;;;;-145.69;77.88;72654.22;5116286;28;20231;-78
2022/02/19 06:31:06;;;;;;;8.07;1.67;;;;;;;-145.69;77.56;72644.25;5116800;28;20205;-78
2022/02/19 06:33:33;;;;;;;10.80;1.53;;;;;;;-145.69;77.94;72644.25;5116775;28;20563;-78
2022/02/19 06:35:59;;;;;;;11.23;2.00;;;;;;;-145.69;78.06;72654.22;5116508;28;20720;-78
2022/02/19 06:38:27;;;;;;;7.07;1.37;;;;;;;-145.69;79.01;72664.16;5116234;28;20198;-78
2022/02/19 06:40:53;;;;;;;9.97;1.60;;;;;;;-145.69;79.31;72680.09;5116367;28;20246;-78
2022/02/19 06:43:20;;;;;;;10.43;1.73;;;;;;;-145.69;79.28;72680.09;5116116;28;20709;-78
2022/02/19 06:45:46;;;;;;;14.63;1.97;;;;;;;-145.69;79.59;72690.03;5116521;28;20209;-78
2022/02/19 06:48:13;;;;;;;12.23;1.80;;;;;;;-145.69;79.39;72688.06;5116306;28;20208;-79
2022/02/19 06:50:39;;;;;;;20.57;1.87;;;;;;;-145.69;80.15;72696.00;5101154;28;20194;-78
2022/02/19 06:53:06;;;;;;;10.03;2.00;;;;;;;-145.69;79.33;72703.97;5095877;28;20247;-78
2022/02/19 06:55:33;;;;;;;20.40;2.40;;;;;;;-145.69;79.89;72707.97;5095420;28;20266;-78
2022/02/19 06:58:00;;;;;;;8.23;1.63;;;;;;;-145.69;80.62;72719.91;5095754;28;20205;-78
2022/02/19 07:00:26;;;;;;;10.43;1.90;;;;;;;-145.69;80.72;72719.91;5095791;28;20240;-78
2022/02/19 07:02:53;;;;;;;5.77;1.67;;;;;;;-145.69;80.97;72735.81;5095847;28;20198;-78
2022/02/19 07:05:20;;;;;;;9.50;1.80;;;;;;;-145.69;81.21;72733.84;5095621;28;20637;-78
2022/02/19 07:07:46;;;;;;;10.20;2.17;;;;;;;-145.69;81.26;72747.78;5095661;28;20206;-78
2022/02/19 07:10:13;;;;;;;9.20;1.73;;;;;;;-145.69;80.32;72727.88;5095149;28;20210;-78
2022/02/19 07:12:41;;;;;;;18.63;2.20;;;;;;;-145.69;79.80;72725.88;5095658;28;20240;-78
2022/02/19 07:15:09;;;;;;;12.37;1.80;;;;;;;-145.69;80.49;72725.88;5095660;28;20206;-78
2022/02/19 07:17:45;;;;;;;12.50;2.10;;;;;;;-145.69;81.13;72727.88;5095327;28;20198;-78
2022/02/19 07:20:12;;;;;;;10.13;2.13;;;;;;;-145.69;79.89;72711.94;5105537;28;20225;-78
2022/02/19 07:22:38;;;;;;;7.83;1.53;;;;;;;-145.69;78.23;72700.00;5115026;28;20201;-77
2022/02/19 07:25:05;;;;;;;10.20;1.87;;;;;;;-145.69;78.33;72698.00;5115814;28;20201;-78
2022/02/19 07:27:36;;;;;;;9.73;1.60;;;;;;;-145.69;77.35;72690.03;5115615;28;20193;-78
2022/02/19 07:30:05;;;;;;;10.30;1.80;;;;;;;-145.69;77.18;72682.09;5114817;28;20205;-78
2022/02/19 07:32:32;;;;;;;7.67;1.53;;;;;;;-145.69;78.26;72676.09;5115438;28;20648;-78
2022/02/19 07:34:59;;;;;;;17.83;1.90;;;;;;;-145.69;79.04;72674.13;5115293;28;20257;-78
2022/02/19 07:37:25;;;;;;;9.13;1.63;;;;;;;-145.69;78.45;72670.13;5115270;28;20197;-79
2022/02/19 07:39:52;;;;;;;18.07;2.20;;;;;;;-145.69;77.82;72658.19;5115483;28;20248;-78
2022/02/19 07:42:18;;;;;;;9.77;1.77;;;;;;;-145.69;78.31;72656.22;5115392;28;20193;-77
2022/02/19 07:44:45;;;;;;;15.37;2.23;;;;;;;-145.69;76.10;72658.19;5115448;28;20246;-78
2022/02/19 07:47:13;;;;;;;9.33;2.00;;;;;;;-145.69;77.35;72652.22;5115192;28;20215;-78
2022/02/19 08:00:32;;;;;;;7.97;2.03;;;;;;;-145.69;76.29;72624.34;5094594;28;20271;-78
2022/02/19 08:03:00;;;;;;;8.47;1.60;;;;;;;-145.69;75.38;72628.34;5094640;28;20197;-78
2022/02/19 08:05:26;;;;;;;17.57;2.50;;;;;;;-145.69;76.21;72606.44;5094405;28;20212;-78
2022/02/19 08:07:53;;;;;;;14.90;1.93;;;;;;;-145.69;75.05;72590.53;5094551;28;20198;-78
2022/02/19 08:10:19;;;;;;;13.67;1.77;;;;;;;-145.69;76.31;72596.50;5094514;28;20206;-78
2022/02/19 08:12:46;;;;;;;11.70;2.00;;;;;;;-145.69;76.87;72596.50;5094225;28;20263;-78
2022/02/19 08:15:12;;;;;;;8.77;1.73;;;;;;;-145.69;75.96;72602.47;5094400;28;20202;-78
2022/02/19 08:17:38;;;;;;;13.03;2.30;;;;;;;-145.69;74.79;72628.34;5094095;28;21759;-78
2022/02/19 08:20:08;;;;;;;11.67;2.00;;;;;;;-145.69;75.81;72614.41;5100875;28;20222;-77
2022/02/19 08:22:34;;;;;;;12.13;1.63;;;;;;;-145.69;74.92;72608.44;5094105;28;20202;-78
2022/02/19 08:25:00;;;;;;;14.13;2.33;;;;;;;-145.69;74.88;72618.38;5093693;28;20198;-78
2022/02/19 08:27:27;;;;;;;10.27;2.00;;;;;;;-145.69;75.28;72608.44;5094040;28;20202;-78
2022/02/19 08:29:53;;;;;;;12.47;1.50;;;;;;;-145.69;73.94;72606.44;5093999;28;20202;-78
2022/02/19 08:32:20;;;;;;;13.63;2.20;;;;;;;-145.69;73.75;72596.50;5094060;28;20202;-77
2022/02/19 08:34:46;;;;;;;14.53;2.17;;;;;;;-145.69;74.46;72560.66;5093754;28;20202;-77
2022/02/19 08:37:14;;;;;;;13.30;2.03;;;;;;;-145.69;74.10;72576.59;5093831;28;20227;-79
2022/02/19 08:39:40;;;;;;;11.10;1.97;;;;;;;-145.69;71.94;72574.59;5093703;28;20249;-78
2022/02/19 08:42:09;;;;;;;15.03;2.00;;;;;;;-145.69;76.22;72562.66;5093770;28;20205;-78
2022/02/19 08:44:35;;;;;;;18.87;1.83;;;;;;;-145.69;73.39;72546.72;5094819;28;20205;-78
2022/02/19 08:47:06;;;;;;;11.53;2.37;;;;;;;-145.69;72.23;72524.84;5093850;28;20205;-78
2022/02/19 08:49:33;;;;;;;10.30;1.90;;;;;;;-145.69;72.01;72532.78;5093644;28;20205;-78
2022/02/19 08:51:59;;;;;;;16.10;2.33;;;;;;;-145.69;70.76;72536.78;5093761;28;20205;-79
2022/02/19 08:54:27;;;;;;;14.53;1.90;;;;;;;-145.69;73.31;72540.75;5092812;28;20190;-80
2022/02/19 08:56:54;;;;;;;12.13;1.70;;;;;;;-145.69;74.23;72534.78;5093484;28;20260;-78
2022/02/19 08:59:21;;;;;;;11.83;1.60;;;;;;;-145.69;71.16;72568.63;5111993;28;20194;-77
2022/02/19 09:01:48;;;;;;;9.83;1.77;;;;;;;-145.69;71.99;72562.66;5113700;28;20279;-77
2022/02/19 09:04:15;;;;;;;20.50;2.60;;;;;;;-145.69;71.99;72560.66;5113794;28;20198;-78
2022/02/19 09:06:41;;;;;;;17.07;2.20;;;;;;;-145.69;70.63;72538.78;5113781;28;20201;-76
2022/02/19 09:09:08;;;;;;;13.37;1.60;;;;;;;-145.69;72.21;72560.66;5112695;28;20213;-79
2022/02/19 09:11:37;;;;;;;15.03;1.80;;;;;;;-145.69;70.24;72560.66;5112618;28;20193;-77
2022/02/19 09:14:03;;;;;;;10.67;1.67;;;;;;;-145.69;71.77;72590.53;5113492;28;20201;-76
2022/02/19 09:16:32;;;;;;;11.33;1.77;;;;;;;-145.69;71.39;72594.50;5112979;28;20683;-77
2022/02/19 09:18:58;;;;;;;14.27;2.00;;;;;;;-145.69;71.77;72572.59;5113468;28;20205;-77
2022/02/19 09:21:25;;;;;;;9.97;1.80;;;;;;;-145.69;69.66;72546.72;5113379;28;20229;-78
2022/02/19 09:23:51;;;;;;;15.97;1.80;;;;;;;-145.69;72.04;72564.66;5113588;28;20209;-76
2022/02/19 09:26:18;;;;;;;13.27;1.97;;;;;;;-145.69;73.02;72556.69;5113296;28;20652;-78
2022/02/19 09:28:46;;;;;;;12.50;1.80;;;;;;;-145.69;71.29;72562.66;5113467;28;20201;-78
2022/02/19 09:31:12;;;;;;;11.47;1.90;;;;;;;-145.69;71.65;72566.63;5113499;28;20198;-78
2022/02/19 09:33:39;;;;;;;11.07;1.90;;;;;;;-145.69;70.04;72560.66;5113373;28;20193;-78
2022/02/19 09:36:06;;;;;;;14.70;1.80;;;;;;;-145.69;68.82;72528.81;5113605;28;20201;-78
2022/02/19 09:38:32;;;;;;;11.07;1.73;;;;;;;-145.69;68.18;72540.75;5112671;28;20198;-79
2022/02/19 09:41:01;;;;;;;14.60;1.70;;;;;;;-145.69;70.07;72550.72;5113145;28;20231;-78
2022/02/19 09:43:28;;;;;;;10.30;1.40;;;;;;;-145.69;70.97;72570.63;5113372;28;20197;-80
2022/02/19 09:45:56;;;;;;;12.03;1.83;;;;;;;-145.69;70.90;72574.59;5113205;28;20668;-78
2022/02/19 09:48:22;;;;;;;17.00;2.20;;;;;;;-145.69;70.79;72624.34;5113052;28;20197;-78
2022/02/19 09:50:50;;;;;;;20.13;1.90;;;;;;;-145.69;72.95;72624.34;5112977;28;20204;-77
2022/02/19 09:53:17;;;;;;;9.27;1.63;;;;;;;-145.69;69.83;72636.31;5113544;28;20208;-77
2022/02/19 09:55:43;;;;;;;13.83;2.00;;;;;;;-145.69;70.72;72624.34;5118834;28;20232;-77
2022/02/19 09:58:10;;;;;;;8.67;1.50;;;;;;;-145.69;71.38;72608.44;5119177;28;20201;-77
2022/02/19 10:00:43;;;;;;;11.53;2.00;;;;;;;-145.69;69.70;72614.41;5117176;28;20224;-77
2022/02/19 10:03:24;;;;;;;8.73;1.83;;;;;;;-145.69;68.93;72606.44;5117332;28;20201;-77
2022/02/19 10:05:52;;;;;;;12.53;1.90;;;;;;;-145.69;69.13;72550.72;5117107;28;20209;-77
2022/02/19 10:08:24;;;;;;;6.40;1.70;;;;;;;-145.69;68.02;72508.91;5103730;28;20684;-77
2022/02/19 10:10:52;;;;;;;13.77;2.40;;;;;;;-145.69;67.25;72475.06;5098425;28;20194;-77
2022/02/19 10:13:38;;;;;;;7.77;1.63;;;;;;;-145.69;65.91;72496.97;5096313;28;20201;-78
2022/02/19 10:16:11;;;;;;;7.17;1.67;;;;;;;-145.69;63.01;72477.06;5096355;28;20229;-79
2022/02/19 10:18:48;;;;;;;14.43;1.87;;;;;;;-145.69;62.64;72485.03;5096491;28;20209;-77
2022/02/19 10:21:16;;;;;;;10.23;1.87;;;;;;;-145.69;63.85;72485.03;5095912;28;20607;-78
2022/02/19 10:23:46;;;;;;;6.13;1.43;;;;;;;-145.69;61.54;72502.94;5096087;28;20210;-79
2022/02/19 10:26:14;;;;;;;8.40;1.40;;;;;;;-145.69;64.63;72494.97;5096487;28;20202;-78
2022/02/19 10:28:41;;;;;;;10.40;1.37;;;;;;;-145.69;61.81;72417.34;5096346;28;20236;-79
2022/02/19 10:31:12;;;;;;;11.47;1.83;;;;;;;-145.69;57.45;72397.44;5096713;28;20206;-80
2022/02/19 10:33:40;;;;;;;8.23;1.40;;;;;;;-145.69;55.59;72409.38;5097741;28;20556;-80
2022/02/19 10:36:14;;;;;;;9.10;1.50;;;;;;;-145.69;57.07;72333.75;5096894;28;20194;-77
2022/02/19 10:38:52;;;;;;;9.33;1.47;;;;;;;-145.69;52.94;72371.56;5111646;28;20701;-78
2022/02/19 10:41:18;;;;;;;4.53;1.20;;;;;;;-145.69;52.34;72467.13;5115778;28;20221;-77
2022/02/19 10:43:45;;;;;;;7.27;1.50;;;;;;;-145.69;57.88;72453.19;5116350;28;20660;-77
2022/02/19 10:46:11;;;;;;;12.23;1.73;;;;;;;-145.69;54.49;72445.22;5116190;28;20201;-77
2022/02/19 10:48:40;;;;;;;9.40;1.70;;;;;;;-145.69;53.37;72461.13;5116271;28;20232;-79
2022/02/19 10:51:09;;;;;;;9.40;1.80;;;;;;;-145.69;58.81;72489.00;5115945;28;20652;-77
2022/02/19 10:53:36;;;;;;;10.20;2.03;;;;;;;-145.69;55.02;72481.03;5115949;28;20193;-77
2022/02/19 10:56:10;;;;;;;8.07;1.30;;;;;;;-145.69;54.27;72467.13;5116085;28;20232;-77
2022/02/19 10:58:40;;;;;;;3.33;1.40;;;;;;;-145.69;52.77;72453.19;5116179;28;20593;-78
2022/02/19 11:01:19;;;;;;;5.43;1.23;;;;;;;-145.69;54.38;72520.84;5116207;28;20225;-78
2022/02/19 11:03:49;;;;;;;5.23;1.27;;;;;;;-145.69;54.83;72496.97;5115661;28;20268;-77
2022/02/19 11:06:18;;;;;;;4.70;1.20;;;;;;;-145.69;53.80;72487.00;5114622;28;20197;-78
2022/02/19 11:08:45;;;;;;;10.83;1.70;;;;;;;-145.69;55.73;72421.34;5096756;28;20224;-78
2022/02/19 11:11:15;;;;;;;7.70;1.30;;;;;;;-145.69;57.08;72381.53;5095331;28;20242;-78
2022/02/19 11:13:44;;;;;;;7.27;1.50;;;;;;;-145.69;55.84;72329.78;5094830;28;20233;-78
2022/02/19 11:16:11;;;;;;;5.27;1.53;;;;;;;-145.69;53.49;72315.84;5095110;28;20209;-77
2022/02/19 11:18:38;;;;;;;7.23;1.43;;;;;;;-145.69;50.99;72286.00;5095046;28;20221;-78
2022/02/19 11:21:06;;;;;;;3.90;1.10;;;;;;;-145.69;48.74;72349.69;5095118;28;20226;-78
2022/02/19 11:23:39;;;;;;;4.30;1.37;;;;;;;-145.69;51.79;72363.63;5095007;28;20209;-78
2022/02/19 11:26:08;;;;;;;3.77;1.30;;;;;;;-145.69;51.28;72345.69;5094735;28;20205;-77